sensor_id;sensor_type;location;lat;lon;timestamp;pressure;altitude;pressure_sealevel;temperature;humidity
28648;BME280;17137;51.494;-0.262;2023-02-01T00:00:10;50622.77;;;-145.72;65.14
28648;BME280;17137;51.494;-0.262;2023-02-01T00:00:40;50600.95;;;-145.72;65.25
28648;BME280;17137;51.494;-0.262;2023-02-01T00:01:11;50600.71;;;-145.72;65.27
28648;BME280;17137;51.494;-0.262;2023-02-01T00:01:41;50597.13;;;-145.72;65.49
28648;BME280;17137;51.494;-0.262;2023-02-01T00:02:12;50599.23;;;-145.72;65.51
28648;BME280;17137;51.494;-0.262;2023-02-01T00:02:42;50610.69;;;-145.72;65.84
28648;BME280;17137;51.494;-0.262;2023-02-01T00:03:12;50619.94;;;-145.72;65.83
28648;BME280;17137;51.494;-0.262;2023-02-01T00:03:43;50606.87;;;-145.72;65.92
28648;BME280;17137;51.494;-0.262;2023-02-01T00:04:13;50614.76;;;-145.72;67.02
28648;BME280;17137;51.494;-0.262;2023-02-01T00:04:43;50616.98;;;-145.72;67.04
28648;BME280;17137;51.494;-0.262;2023-02-01T00:05:14;50606.75;;;-145.72;67.54
28648;BME280;17137;51.494;-0.262;2023-02-01T00:05:44;50609.09;;;-145.72;67.93
28648;BME280;17137;51.494;-0.262;2023-02-01T00:06:24;50619.32;;;-145.72;68.37
28648;BME280;17137;51.494;-0.262;2023-02-01T00:06:54;50607.36;;;-145.72;68.35
28648;BME280;17137;51.494;-0.262;2023-02-01T00:07:24;50608.84;;;-145.72;68.40
28648;BME280;17137;51.494;-0.262;2023-02-01T00:07:55;50630.29;;;-145.72;68.56
28648;BME280;17137;51.494;-0.262;2023-02-01T00:08:25;50609.46;;;-145.72;68.88
28648;BME280;17137;51.494;-0.262;2023-02-01T00:08:56;50604.28;;;-145.72;68.55
28648;BME280;17137;51.494;-0.262;2023-02-01T00:09:27;50606.99;;;-145.72;68.56
28648;BME280;17137;51.494;-0.262;2023-02-01T00:09:57;50617.35;;;-145.72;69.08
28648;BME280;17137;51.494;-0.262;2023-02-01T00:10:27;50604.53;;;-145.72;69.33
28648;BME280;17137;51.494;-0.262;2023-02-01T00:10:59;50603.79;;;-145.72;70.20
28648;BME280;17137;51.494;-0.262;2023-02-01T00:11:29;50622.40;;;-145.72;69.84
28648;BME280;17137;51.494;-0.262;2023-02-01T00:12:00;50601.69;;;-145.72;69.75
28648;BME280;17137;51.494;-0.262;2023-02-01T00:12:30;50600.46;;;-145.72;69.69
28648;BME280;17137;51.494;-0.262;2023-02-01T00:13:00;50612.05;;;-145.72;69.88
28648;BME280;17137;51.494;-0.262;2023-02-01T00:13:32;50625.36;;;-145.72;70.08
28648;BME280;17137;51.494;-0.262;2023-02-01T00:14:03;50618.46;;;-145.72;70.62
28648;BME280;17137;51.494;-0.262;2023-02-01T00:14:33;50610.57;;;-145.72;71.00
28648;BME280;17137;51.494;-0.262;2023-02-01T00:15:04;50615.01;;;-145.72;70.78
28648;BME280;17137;51.494;-0.262;2023-02-01T00:15:35;50622.16;;;-145.72;70.74
28648;BME280;17137;51.494;-0.262;2023-02-01T00:16:07;50620.18;;;-145.72;70.59
28648;BME280;17137;51.494;-0.262;2023-02-01T00:16:38;50616.36;;;-145.72;70.22
28648;BME280;17137;51.494;-0.262;2023-02-01T00:17:08;50616.85;;;-145.72;70.75
28648;BME280;17137;51.494;-0.262;2023-02-01T00:17:38;50619.44;;;-145.72;70.62
28648;BME280;17137;51.494;-0.262;2023-02-01T00:18:08;50624.00;;;-145.72;70.56
28648;BME280;17137;51.494;-0.262;2023-02-01T00:18:39;50606.38;;;-145.72;70.33
28648;BME280;17137;51.494;-0.262;2023-02-01T00:19:12;50627.09;;;-145.72;70.38
28648;BME280;17137;51.494;-0.262;2023-02-01T00:19:43;50614.51;;;-145.72;70.32
28648;BME280;17137;51.494;-0.262;2023-02-01T00:20:13;50606.87;;;-145.72;70.37
28648;BME280;17137;51.494;-0.262;2023-02-01T00:20:45;50610.69;;;-145.72;70.39
28648;BME280;17137;51.494;-0.262;2023-02-01T00:21:18;50613.77;;;-145.72;70.12
28648;BME280;17137;51.494;-0.262;2023-02-01T00:21:49;50604.77;;;-145.72;70.00
28648;BME280;17137;51.494;-0.262;2023-02-01T00:22:19;50606.01;;;-145.72;70.02
28648;BME280;17137;51.494;-0.262;2023-02-01T00:22:49;50604.03;;;-145.72;69.80
28648;BME280;17137;51.494;-0.262;2023-02-01T00:23:20;50617.47;;;-145.72;69.48
28648;BME280;17137;51.494;-0.262;2023-02-01T00:23:50;50619.44;;;-145.72;69.73
28648;BME280;17137;51.494;-0.262;2023-02-01T00:24:20;50629.43;;;-145.72;70.96
28648;BME280;17137;51.494;-0.262;2023-02-01T00:24:50;50618.46;;;-145.72;70.89
28648;BME280;17137;51.494;-0.262;2023-02-01T00:25:21;50620.80;;;-145.72;70.76
28648;BME280;17137;51.494;-0.262;2023-02-01T00:25:51;50610.94;;;-145.72;70.73
28648;BME280;17137;51.494;-0.262;2023-02-01T00:26:27;50610.94;;;-145.72;70.54
28648;BME280;17137;51.494;-0.262;2023-02-01T00:27:00;50625.48;;;-145.72;70.81
28648;BME280;17137;51.494;-0.262;2023-02-01T00:27:30;50618.70;;;-145.72;71.19
28648;BME280;17137;51.494;-0.262;2023-02-01T00:28:00;50618.70;;;-145.72;71.50
28648;BME280;17137;51.494;-0.262;2023-02-01T00:28:31;50617.59;;;-145.72;71.63
28648;BME280;17137;51.494;-0.262;2023-02-01T00:29:03;50617.35;;;-145.72;71.55
28648;BME280;17137;51.494;-0.262;2023-02-01T00:29:34;50614.64;;;-145.72;71.34
28648;BME280;17137;51.494;-0.262;2023-02-01T00:30:05;50615.38;;;-145.72;71.06
28648;BME280;17137;51.494;-0.262;2023-02-01T00:30:36;50622.77;;;-145.72;70.88
28648;BME280;17137;51.494;-0.262;2023-02-01T00:31:06;50619.69;;;-145.72;70.61
28648;BME280;17137;51.494;-0.262;2023-02-01T00:31:36;50609.33;;;-145.72;70.79
28648;BME280;17137;51.494;-0.262;2023-02-01T00:32:07;50606.50;;;-145.72;70.66
28648;BME280;17137;51.494;-0.262;2023-02-01T00:32:37;50613.28;;;-145.72;70.53
28648;BME280;17137;51.494;-0.262;2023-02-01T00:33:07;50610.32;;;-145.72;70.42
28648;BME280;17137;51.494;-0.262;2023-02-01T00:33:37;50617.84;;;-145.72;70.19
28648;BME280;17137;51.494;-0.262;2023-02-01T00:34:10;50615.99;;;-145.72;70.18
28648;BME280;17137;51.494;-0.262;2023-02-01T00:34:42;50609.95;;;-145.72;70.29
28648;BME280;17137;51.494;-0.262;2023-02-01T00:35:12;50606.38;;;-145.72;70.31
28648;BME280;17137;51.494;-0.262;2023-02-01T00:35:42;50618.09;;;-145.72;70.87
28648;BME280;17137;51.494;-0.262;2023-02-01T00:36:13;50616.98;;;-145.72;71.40
28648;BME280;17137;51.494;-0.262;2023-02-01T00:36:44;50614.02;;;-145.72;71.75
28648;BME280;17137;51.494;-0.262;2023-02-01T00:37:15;50612.29;;;-145.72;71.83
28648;BME280;17137;51.494;-0.262;2023-02-01T00:37:45;50618.21;;;-145.72;71.95
28648;BME280;17137;51.494;-0.262;2023-02-01T00:38:15;50605.76;;;-145.72;71.70
28648;BME280;17137;51.494;-0.262;2023-02-01T00:38:45;50616.12;;;-145.72;71.91
28648;BME280;17137;51.494;-0.262;2023-02-01T00:39:16;50605.76;;;-145.72;72.11
28648;BME280;17137;51.494;-0.262;2023-02-01T00:39:47;50614.14;;;-145.72;72.31
28648;BME280;17137;51.494;-0.262;2023-02-01T00:40:17;50620.92;;;-145.72;72.14
28648;BME280;17137;51.494;-0.262;2023-02-01T00:40:47;50602.43;;;-145.72;71.85
28648;BME280;17137;51.494;-0.262;2023-02-01T00:41:20;50608.72;;;-145.72;71.75
28648;BME280;17137;51.494;-0.262;2023-02-01T00:41:50;50616.85;;;-145.72;71.47
28648;BME280;17137;51.494;-0.262;2023-02-01T00:42:20;50598.49;;;-145.72;71.05
28648;BME280;17137;51.494;-0.262;2023-02-01T00:42:51;50601.32;;;-145.72;70.91
28648;BME280;17137;51.494;-0.262;2023-02-01T00:43:21;50618.21;;;-145.72;70.54
28648;BME280;17137;51.494;-0.262;2023-02-01T00:43:51;50608.47;;;-145.72;70.49
28648;BME280;17137;51.494;-0.262;2023-02-01T00:44:22;50612.66;;;-145.72;70.41
28648;BME280;17137;51.494;-0.262;2023-02-01T00:44:52;50614.64;;;-145.72;70.53
28648;BME280;17137;51.494;-0.262;2023-02-01T00:45:22;50621.05;;;-145.72;70.55
28648;BME280;17137;51.494;-0.262;2023-02-01T00:45:52;50608.60;;;-145.72;70.53
28648;BME280;17137;51.494;-0.262;2023-02-01T00:46:23;50608.60;;;-145.72;70.58
28648;BME280;17137;51.494;-0.262;2023-02-01T00:46:54;50604.77;;;-145.72;70.76
28648;BME280;17137;51.494;-0.262;2023-02-01T00:47:24;50608.10;;;-145.72;71.45
28648;BME280;17137;51.494;-0.262;2023-02-01T00:47:54;50615.50;;;-145.72;71.49
28648;BME280;17137;51.494;-0.262;2023-02-01T00:48:26;50608.96;;;-145.72;72.06
28648;BME280;17137;51.494;-0.262;2023-02-01T00:48:56;50609.70;;;-145.72;72.02
28648;BME280;17137;51.494;-0.262;2023-02-01T00:49:26;50611.55;;;-145.72;72.36
28648;BME280;17137;51.494;-0.262;2023-02-01T00:49:57;50618.46;;;-145.72;72.29
28648;BME280;17137;51.494;-0.262;2023-02-01T00:50:27;50615.62;;;-145.72;72.76
28648;BME280;17137;51.494;-0.262;2023-02-01T00:50:59;50627.46;;;-145.72;72.94
28648;BME280;17137;51.494;-0.262;2023-02-01T00:51:29;50613.40;;;-145.72;72.82
28648;BME280;17137;51.494;-0.262;2023-02-01T00:52:00;50617.84;;;-145.72;72.62
28648;BME280;17137;51.494;-0.262;2023-02-01T00:52:30;50614.51;;;-145.72;72.37
28648;BME280;17137;51.494;-0.262;2023-02-01T00:53:00;50605.64;;;-145.72;72.07
28648;BME280;17137;51.494;-0.262;2023-02-01T00:53:31;50605.02;;;-145.72;71.60
28648;BME280;17137;51.494;-0.262;2023-02-01T00:54:02;50606.75;;;-145.72;71.35
28648;BME280;17137;51.494;-0.262;2023-02-01T00:54:33;50602.68;;;-145.72;71.04
28648;BME280;17137;51.494;-0.262;2023-02-01T00:55:04;50602.43;;;-145.72;70.91
28648;BME280;17137;51.494;-0.262;2023-02-01T00:55:34;50606.99;;;-145.72;70.84
28648;BME280;17137;51.494;-0.262;2023-02-01T00:56:05;50609.33;;;-145.72;70.59
28648;BME280;17137;51.494;-0.262;2023-02-01T00:56:36;50614.88;;;-145.72;70.77
28648;BME280;17137;51.494;-0.262;2023-02-01T00:57:06;50609.95;;;-145.72;70.75
28648;BME280;17137;51.494;-0.262;2023-02-01T00:57:36;50619.57;;;-145.72;70.76
28648;BME280;17137;51.494;-0.262;2023-02-01T00:58:07;50601.94;;;-145.72;70.70
28648;BME280;17137;51.494;-0.262;2023-02-01T00:58:37;50604.16;;;-145.72;70.80
28648;BME280;17137;51.494;-0.262;2023-02-01T00:59:10;50611.18;;;-145.72;70.83
28648;BME280;17137;51.494;-0.262;2023-02-01T00:59:41;50602.06;;;-145.72;71.47
28648;BME280;17137;51.494;-0.262;2023-02-01T01:00:12;50618.95;;;-145.72;71.74
28648;BME280;17137;51.494;-0.262;2023-02-01T01:00:43;50612.79;;;-145.72;71.67
28648;BME280;17137;51.494;-0.262;2023-02-01T01:01:14;50610.81;;;-145.72;71.67
28648;BME280;17137;51.494;-0.262;2023-02-01T01:01:45;50608.84;;;-145.72;72.03
28648;BME280;17137;51.494;-0.262;2023-02-01T01:02:16;50602.31;;;-145.72;72.01
28648;BME280;17137;51.494;-0.262;2023-02-01T01:02:46;50609.70;;;-145.72;72.31
28648;BME280;17137;51.494;-0.262;2023-02-01T01:03:16;50619.57;;;-145.72;72.36
28648;BME280;17137;51.494;-0.262;2023-02-01T01:03:49;50610.57;;;-145.72;72.15
28648;BME280;17137;51.494;-0.262;2023-02-01T01:04:19;50615.75;;;-145.72;72.50
28648;BME280;17137;51.494;-0.262;2023-02-01T01:04:49;50614.76;;;-145.72;72.72
28648;BME280;17137;51.494;-0.262;2023-02-01T01:05:20;50631.77;;;-145.72;72.89
28648;BME280;17137;51.494;-0.262;2023-02-01T01:05:50;50618.09;;;-145.72;72.47
28648;BME280;17137;51.494;-0.262;2023-02-01T01:06:22;50613.28;;;-145.72;71.95
28648;BME280;17137;51.494;-0.262;2023-02-01T01:06:52;50620.80;;;-145.72;71.79
28648;BME280;17137;51.494;-0.262;2023-02-01T01:07:23;50606.87;;;-145.72;71.68
28648;BME280;17137;51.494;-0.262;2023-02-01T01:07:53;50615.99;;;-145.72;71.68
28648;BME280;17137;51.494;-0.262;2023-02-01T01:08:23;50609.70;;;-145.72;71.47
28648;BME280;17137;51.494;-0.262;2023-02-01T01:08:55;50597.87;;;-145.72;71.30
28648;BME280;17137;51.494;-0.262;2023-02-01T01:09:25;50614.14;;;-145.72;71.25
28648;BME280;17137;51.494;-0.262;2023-02-01T01:09:55;50614.76;;;-145.72;71.26
28648;BME280;17137;51.494;-0.262;2023-02-01T01:10:26;50609.95;;;-145.72;71.38
28648;BME280;17137;51.494;-0.262;2023-02-01T01:10:56;50609.58;;;-145.72;72.07
28648;BME280;17137;51.494;-0.262;2023-02-01T01:11:28;50612.54;;;-145.72;72.23
28648;BME280;17137;51.494;-0.262;2023-02-01T01:11:59;50624.25;;;-145.72;72.35
28648;BME280;17137;51.494;-0.262;2023-02-01T01:12:30;50624.37;;;-145.72;72.69
28648;BME280;17137;51.494;-0.262;2023-02-01T01:13:00;50629.31;;;-145.72;73.09
28648;BME280;17137;51.494;-0.262;2023-02-01T01:13:31;50609.95;;;-145.72;73.27
28648;BME280;17137;51.494;-0.262;2023-02-01T01:14:01;50607.12;;;-145.72;73.40
28648;BME280;17137;51.494;-0.262;2023-02-01T01:14:32;50614.76;;;-145.72;73.54
28648;BME280;17137;51.494;-0.262;2023-02-01T01:15:03;50621.17;;;-145.72;73.64
28648;BME280;17137;51.494;-0.262;2023-02-01T01:15:36;50638.68;;;-145.72;73.73
28648;BME280;17137;51.494;-0.262;2023-02-01T01:16:08;50612.79;;;-145.72;73.66
28648;BME280;17137;51.494;-0.262;2023-02-01T01:16:38;50622.16;;;-145.72;73.80
28648;BME280;17137;51.494;-0.262;2023-02-01T01:17:09;50615.75;;;-145.72;73.73
28648;BME280;17137;51.494;-0.262;2023-02-01T01:17:39;50613.90;;;-145.72;73.13
28648;BME280;17137;51.494;-0.262;2023-02-01T01:18:09;50618.21;;;-145.72;72.60
28648;BME280;17137;51.494;-0.262;2023-02-01T01:18:40;50607.61;;;-145.72;72.50
28648;BME280;17137;51.494;-0.262;2023-02-01T01:19:11;50614.88;;;-145.72;72.22
28648;BME280;17137;51.494;-0.262;2023-02-01T01:19:41;50604.65;;;-145.72;72.05
28648;BME280;17137;51.494;-0.262;2023-02-01T01:20:12;50611.92;;;-145.72;71.71
28648;BME280;17137;51.494;-0.262;2023-02-01T01:20:42;50603.79;;;-145.72;71.71
28648;BME280;17137;51.494;-0.262;2023-02-01T01:21:18;50616.61;;;-145.72;71.78
28648;BME280;17137;51.494;-0.262;2023-02-01T01:21:49;50616.73;;;-145.72;71.88
28648;BME280;17137;51.494;-0.262;2023-02-01T01:22:19;50607.24;;;-145.72;71.81
28648;BME280;17137;51.494;-0.262;2023-02-01T01:22:50;50609.95;;;-145.72;71.75
28648;BME280;17137;51.494;-0.262;2023-02-01T01:23:20;50609.33;;;-145.72;71.67
28648;BME280;17137;51.494;-0.262;2023-02-01T01:23:51;50624.37;;;-145.72;71.90
28648;BME280;17137;51.494;-0.262;2023-02-01T01:24:21;50622.40;;;-145.72;72.48
28648;BME280;17137;51.494;-0.262;2023-02-01T01:24:51;50615.25;;;-145.72;72.56
28648;BME280;17137;51.494;-0.262;2023-02-01T01:25:21;50609.95;;;-145.72;72.87
28648;BME280;17137;51.494;-0.262;2023-02-01T01:25:52;50612.42;;;-145.72;72.79
28648;BME280;17137;51.494;-0.262;2023-02-01T01:26:24;50608.35;;;-145.72;72.88
28648;BME280;17137;51.494;-0.262;2023-02-01T01:26:54;50617.10;;;-145.72;73.00
28648;BME280;17137;51.494;-0.262;2023-02-01T01:27:25;50604.28;;;-145.72;72.81
28648;BME280;17137;51.494;-0.262;2023-02-01T01:27:55;50611.43;;;-145.72;72.97
28648;BME280;17137;51.494;-0.262;2023-02-01T01:28:25;50606.25;;;-145.72;72.94
28648;BME280;17137;51.494;-0.262;2023-02-01T01:28:56;50607.73;;;-145.72;72.85
28648;BME280;17137;51.494;-0.262;2023-02-01T01:29:27;50604.40;;;-145.72;73.01
28648;BME280;17137;51.494;-0.262;2023-02-01T01:29:57;50614.64;;;-145.72;73.03
28648;BME280;17137;51.494;-0.262;2023-02-01T01:30:27;50621.54;;;-145.72;72.45
28648;BME280;17137;51.494;-0.262;2023-02-01T01:30:58;50613.77;;;-145.72;72.26
28648;BME280;17137;51.494;-0.262;2023-02-01T01:31:29;50622.65;;;-145.72;72.30
28648;BME280;17137;51.494;-0.262;2023-02-01T01:31:59;50612.17;;;-145.72;72.20
28648;BME280;17137;51.494;-0.262;2023-02-01T01:32:30;50621.29;;;-145.72;72.78
28648;BME280;17137;51.494;-0.262;2023-02-01T01:33:00;50625.24;;;-145.72;72.91
28648;BME280;17137;51.494;-0.262;2023-02-01T01:33:30;50627.70;;;-145.72;72.85
28648;BME280;17137;51.494;-0.262;2023-02-01T01:34:01;50618.70;;;-145.72;72.67
28648;BME280;17137;51.494;-0.262;2023-02-01T01:34:31;50617.35;;;-145.72;72.48
28648;BME280;17137;51.494;-0.262;2023-02-01T01:35:01;50621.79;;;-145.72;72.62
28648;BME280;17137;51.494;-0.262;2023-02-01T01:35:32;50622.65;;;-145.72;72.58
28648;BME280;17137;51.494;-0.262;2023-02-01T01:36:04;50614.02;;;-145.72;72.57
28648;BME280;17137;51.494;-0.262;2023-02-01T01:36:35;50605.76;;;-145.72;72.48
28648;BME280;17137;51.494;-0.262;2023-02-01T01:37:10;50614.14;;;-145.72;73.03
28648;BME280;17137;51.494;-0.262;2023-02-01T01:37:40;50621.42;;;-145.72;73.55
28648;BME280;17137;51.494;-0.262;2023-02-01T01:38:11;50619.32;;;-145.72;73.75
28648;BME280;17137;51.494;-0.262;2023-02-01T01:38:42;50614.88;;;-145.72;73.70
28648;BME280;17137;51.494;-0.262;2023-02-01T01:39:12;50606.13;;;-145.72;73.77
28648;BME280;17137;51.494;-0.262;2023-02-01T01:39:42;50608.47;;;-145.72;74.12
28648;BME280;17137;51.494;-0.262;2023-02-01T01:40:13;50614.02;;;-145.72;74.20
28648;BME280;17137;51.494;-0.262;2023-02-01T01:40:45;50604.53;;;-145.72;74.04
28648;BME280;17137;51.494;-0.262;2023-02-01T01:41:18;50605.14;;;-145.72;73.81
28648;BME280;17137;51.494;-0.262;2023-02-01T01:41:49;50602.43;;;-145.72;73.54
28648;BME280;17137;51.494;-0.262;2023-02-01T01:42:19;50603.66;;;-145.72;73.38
28648;BME280;17137;51.494;-0.262;2023-02-01T01:42:49;50614.14;;;-145.72;72.79
28648;BME280;17137;51.494;-0.262;2023-02-01T01:43:20;50611.31;;;-145.72;72.54
28648;BME280;17137;51.494;-0.262;2023-02-01T01:43:53;50623.14;;;-145.72;72.29
28648;BME280;17137;51.494;-0.262;2023-02-01T01:44:59;50615.99;;;-145.72;72.27
28648;BME280;17137;51.494;-0.262;2023-02-01T01:45:32;50612.29;;;-145.72;72.50
28648;BME280;17137;51.494;-0.262;2023-02-01T01:46:02;50625.11;;;-145.72;72.41
28648;BME280;17137;51.494;-0.262;2023-02-01T01:46:35;50621.79;;;-145.72;72.25
28648;BME280;17137;51.494;-0.262;2023-02-01T01:47:05;50614.39;;;-145.72;72.24
28648;BME280;17137;51.494;-0.262;2023-02-01T01:47:39;50616.12;;;-145.72;72.46
28648;BME280;17137;51.494;-0.262;2023-02-01T01:48:14;50625.48;;;-145.72;72.45
28648;BME280;17137;51.494;-0.262;2023-02-01T01:48:48;50622.16;;;-145.72;72.69
28648;BME280;17137;51.494;-0.262;2023-02-01T01:49:23;50605.14;;;-145.72;72.28
28648;BME280;17137;51.494;-0.262;2023-02-01T01:49:55;50605.76;;;-145.72;72.26
28648;BME280;17137;51.494;-0.262;2023-02-01T01:50:28;50616.85;;;-145.72;72.95
28648;BME280;17137;51.494;-0.262;2023-02-01T01:51:04;50630.05;;;-145.72;73.28
28648;BME280;17137;51.494;-0.262;2023-02-01T01:51:39;50622.77;;;-145.72;73.39
28648;BME280;17137;51.494;-0.262;2023-02-01T01:52:11;50627.21;;;-145.72;73.92
28648;BME280;17137;51.494;-0.262;2023-02-01T01:52:43;50607.98;;;-145.72;74.04
28648;BME280;17137;51.494;-0.262;2023-02-01T01:53:19;50616.85;;;-145.72;73.82
28648;BME280;17137;51.494;-0.262;2023-02-01T01:53:58;50614.39;;;-145.72;74.23
28648;BME280;17137;51.494;-0.262;2023-02-01T01:54:32;50614.14;;;-145.72;74.25
28648;BME280;17137;51.494;-0.262;2023-02-01T01:55:03;50619.81;;;-145.72;74.02
28648;BME280;17137;51.494;-0.262;2023-02-01T01:55:38;50604.28;;;-145.72;73.69
28648;BME280;17137;51.494;-0.262;2023-02-01T01:56:10;50617.47;;;-145.72;73.40
28648;BME280;17137;51.494;-0.262;2023-02-01T01:56:41;50611.18;;;-145.72;72.99
28648;BME280;17137;51.494;-0.262;2023-02-01T01:57:16;50607.73;;;-145.72;72.95
28648;BME280;17137;51.494;-0.262;2023-02-01T01:57:51;50618.46;;;-145.72;73.36
28648;BME280;17137;51.494;-0.262;2023-02-01T01:58:25;50623.39;;;-145.72;73.27
28648;BME280;17137;51.494;-0.262;2023-02-01T01:58:56;50625.85;;;-145.72;73.36
28648;BME280;17137;51.494;-0.262;2023-02-01T01:59:27;50612.42;;;-145.72;73.31
28648;BME280;17137;51.494;-0.262;2023-02-01T02:00:03;50622.03;;;-145.72;73.11
28648;BME280;17137;51.494;-0.262;2023-02-01T02:00:34;50620.80;;;-145.72;72.98
28648;BME280;17137;51.494;-0.262;2023-02-01T02:01:05;50618.70;;;-145.72;73.20
28648;BME280;17137;51.494;-0.262;2023-02-01T02:01:35;50624.87;;;-145.72;73.16
28648;BME280;17137;51.494;-0.262;2023-02-01T02:02:05;50621.66;;;-145.72;73.49
28648;BME280;17137;51.494;-0.262;2023-02-01T02:02:36;50616.48;;;-145.72;73.32
28648;BME280;17137;51.494;-0.262;2023-02-01T02:03:13;50630.05;;;-145.72;74.09
28648;BME280;17137;51.494;-0.262;2023-02-01T02:03:45;50617.72;;;-145.72;74.49
28648;BME280;17137;51.494;-0.262;2023-02-01T02:04:16;50625.98;;;-145.72;74.73
28648;BME280;17137;51.494;-0.262;2023-02-01T02:04:47;50630.54;;;-145.72;75.18
28648;BME280;17137;51.494;-0.262;2023-02-01T02:05:19;50626.72;;;-145.72;74.84
28648;BME280;17137;51.494;-0.262;2023-02-01T02:05:51;50619.69;;;-145.72;74.77
28648;BME280;17137;51.494;-0.262;2023-02-01T02:06:31;50623.76;;;-145.72;75.01
28648;BME280;17137;51.494;-0.262;2023-02-01T02:07:07;50615.25;;;-145.72;75.06
28648;BME280;17137;51.494;-0.262;2023-02-01T02:07:43;50623.02;;;-145.72;75.27
28648;BME280;17137;51.494;-0.262;2023-02-01T02:08:17;50640.28;;;-145.72;75.06
28648;BME280;17137;51.494;-0.262;2023-02-01T02:08:47;50619.57;;;-145.72;74.69
28648;BME280;17137;51.494;-0.262;2023-02-01T02:09:18;50628.57;;;-145.72;74.59
28648;BME280;17137;51.494;-0.262;2023-02-01T02:09:48;50626.96;;;-145.72;74.38
28648;BME280;17137;51.494;-0.262;2023-02-01T02:10:19;50614.64;;;-145.72;74.11
28648;BME280;17137;51.494;-0.262;2023-02-01T02:10:50;50614.39;;;-145.72;73.70
28648;BME280;17137;51.494;-0.262;2023-02-01T02:11:21;50630.42;;;-145.72;73.59
28648;BME280;17137;51.494;-0.262;2023-02-01T02:11:51;50630.79;;;-145.72;74.03
28648;BME280;17137;51.494;-0.262;2023-02-01T02:12:22;50619.07;;;-145.72;74.11
28648;BME280;17137;51.494;-0.262;2023-02-01T02:12:52;50631.65;;;-145.72;73.92
28648;BME280;17137;51.494;-0.262;2023-02-01T02:13:23;50621.17;;;-145.72;73.84
28648;BME280;17137;51.494;-0.262;2023-02-01T02:13:55;50620.80;;;-145.72;74.19
28648;BME280;17137;51.494;-0.262;2023-02-01T02:14:26;50622.16;;;-145.72;74.10
28648;BME280;17137;51.494;-0.262;2023-02-01T02:14:57;50624.25;;;-145.72;73.69
28648;BME280;17137;51.494;-0.262;2023-02-01T02:15:28;50619.07;;;-145.72;73.55
28648;BME280;17137;51.494;-0.262;2023-02-01T02:16:13;50619.07;;;-145.72;73.56
28648;BME280;17137;51.494;-0.262;2023-02-01T02:16:58;50618.21;;;-145.72;74.77
28648;BME280;17137;51.494;-0.262;2023-02-01T02:17:38;50615.62;;;-145.72;74.97
28648;BME280;17137;51.494;-0.262;2023-02-01T02:18:17;50615.50;;;-145.72;74.85
28648;BME280;17137;51.494;-0.262;2023-02-01T02:18:58;50618.33;;;-145.72;74.75
28648;BME280;17137;51.494;-0.262;2023-02-01T02:20:07;50624.87;;;-145.72;75.45
28648;BME280;17137;51.494;-0.262;2023-02-01T02:20:58;50620.92;;;-145.72;75.21
28648;BME280;17137;51.494;-0.262;2023-02-01T02:21:48;50617.84;;;-145.72;75.25
28648;BME280;17137;51.494;-0.262;2023-02-01T02:25:33;50629.55;;;-145.72;75.67
28648;BME280;17137;51.494;-0.262;2023-02-01T02:29:37;50612.54;;;-145.72;75.85
28648;BME280;17137;51.494;-0.262;2023-02-01T02:30:47;50622.40;;;-145.72;76.57
28648;BME280;17137;51.494;-0.262;2023-02-01T02:31:33;50627.58;;;-145.72;76.68
28648;BME280;17137;51.494;-0.262;2023-02-01T02:32:56;50630.91;;;-145.72;76.68
28648;BME280;17137;51.494;-0.262;2023-02-01T02:33:43;50627.33;;;-145.72;76.77
28648;BME280;17137;51.494;-0.262;2023-02-01T02:34:21;50619.81;;;-145.72;76.52
28648;BME280;17137;51.494;-0.262;2023-02-01T02:34:57;50625.36;;;-145.72;76.43
28648;BME280;17137;51.494;-0.262;2023-02-01T02:35:33;50623.39;;;-145.72;75.96
28648;BME280;17137;51.494;-0.262;2023-02-01T02:36:12;50622.40;;;-145.72;75.75
28648;BME280;17137;51.494;-0.262;2023-02-01T02:36:54;50625.73;;;-145.72;75.51
28648;BME280;17137;51.494;-0.262;2023-02-01T02:37:33;50610.44;;;-145.72;75.42
28648;BME280;17137;51.494;-0.262;2023-02-01T02:38:15;50612.42;;;-145.72;75.22
28648;BME280;17137;51.494;-0.262;2023-02-01T02:38:52;50623.51;;;-145.72;75.24
28648;BME280;17137;51.494;-0.262;2023-02-01T02:39:36;50629.31;;;-145.72;75.25
28648;BME280;17137;51.494;-0.262;2023-02-01T02:40:17;50627.70;;;-145.72;75.51
28648;BME280;17137;51.494;-0.262;2023-02-01T02:40:52;50626.72;;;-145.72;75.81
28648;BME280;17137;51.494;-0.262;2023-02-01T02:41:30;50628.57;;;-145.72;76.23
28648;BME280;17137;51.494;-0.262;2023-02-01T02:42:06;50626.59;;;-145.72;76.29
28648;BME280;17137;51.494;-0.262;2023-02-01T02:42:40;50620.80;;;-145.72;76.45
28648;BME280;17137;51.494;-0.262;2023-02-01T02:43:22;50621.79;;;-145.72;76.96
28648;BME280;17137;51.494;-0.262;2023-02-01T02:43:56;50636.95;;;-145.72;76.79
28648;BME280;17137;51.494;-0.262;2023-02-01T02:44:34;50630.66;;;-145.72;77.02
28648;BME280;17137;51.494;-0.262;2023-02-01T02:45:09;50624.74;;;-145.72;77.25
28648;BME280;17137;51.494;-0.262;2023-02-01T02:45:47;50640.65;;;-145.72;77.46
28648;BME280;17137;51.494;-0.262;2023-02-01T02:46:24;50635.84;;;-145.72;77.03
28648;BME280;17137;51.494;-0.262;2023-02-01T02:46:59;50621.79;;;-145.72;76.51
28648;BME280;17137;51.494;-0.262;2023-02-01T02:47:36;50618.70;;;-145.72;76.52
28648;BME280;17137;51.494;-0.262;2023-02-01T02:48:13;50613.03;;;-145.72;76.25
28648;BME280;17137;51.494;-0.262;2023-02-01T02:48:50;50626.35;;;-145.72;76.27
28648;BME280;17137;51.494;-0.262;2023-02-01T02:49:27;50614.76;;;-145.72;75.69
28648;BME280;17137;51.494;-0.262;2023-02-01T02:50:08;50625.11;;;-145.72;75.68
28648;BME280;17137;51.494;-0.262;2023-02-01T02:50:44;50618.70;;;-145.72;75.31
28648;BME280;17137;51.494;-0.262;2023-02-01T02:51:20;50604.03;;;-145.72;74.97
28648;BME280;17137;51.494;-0.262;2023-02-01T02:51:56;50611.68;;;-145.72;74.74
28648;BME280;17137;51.494;-0.262;2023-02-01T02:52:29;50611.68;;;-145.72;74.61
28648;BME280;17137;51.494;-0.262;2023-02-01T02:53:04;50607.73;;;-145.72;74.73
28648;BME280;17137;51.494;-0.262;2023-02-01T02:53:39;50607.86;;;-145.72;74.98